sensor_id;sensor_type;location;lat;lon;timestamp;pressure;altitude;pressure_sealevel;temperature;humidity
49827;BME280;35715;51.570;6.036;2023-08-21T00:01:25;102128.31;;;24.01;59.11
49827;BME280;35715;51.570;6.036;2023-08-21T00:03:50;102131.63;;;23.95;59.08
49827;BME280;35715;51.570;6.036;2023-08-21T00:06:16;102126.16;;;23.89;59.77
49827;BME280;35715;51.570;6.036;2023-08-21T00:08:41;102129.56;;;23.85;58.98
49827;BME280;35715;51.570;6.036;2023-08-21T00:11:07;102125.03;;;23.82;58.70
49827;BME280;35715;51.570;6.036;2023-08-21T00:13:32;102116.25;;;23.82;59.25
49827;BME280;35715;51.570;6.036;2023-08-21T00:15:58;102125.91;;;23.83;59.69
49827;BME280;35715;51.570;6.036;2023-08-21T00:18:23;102126.84;;;23.83;59.89
49827;BME280;35715;51.570;6.036;2023-08-21T00:20:48;102124.19;;;23.83;59.95
49827;BME280;35715;51.570;6.036;2023-08-21T00:23:14;102124.97;;;23.81;60.29
49827;BME280;35715;51.570;6.036;2023-08-21T00:25:39;102126.72;;;23.80;60.16
49827;BME280;35715;51.570;6.036;2023-08-21T00:28:05;102128.34;;;23.77;60.71
49827;BME280;35715;51.570;6.036;2023-08-21T00:30:30;102128.19;;;23.72;60.90
49827;BME280;35715;51.570;6.036;2023-08-21T00:32:56;102128.97;;;23.69;61.32
49827;BME280;35715;51.570;6.036;2023-08-21T00:35:21;102122.78;;;23.67;61.21
49827;BME280;35715;51.570;6.036;2023-08-21T00:37:46;102130.56;;;23.64;61.19
49827;BME280;35715;51.570;6.036;2023-08-21T00:40:12;102122.50;;;23.60;61.16
49827;BME280;35715;51.570;6.036;2023-08-21T00:42:38;102109.84;;;23.49;60.92
49827;BME280;35715;51.570;6.036;2023-08-21T00:45:03;102113.06;;;23.41;61.21
49827;BME280;35715;51.570;6.036;2023-08-21T00:47:29;102120.75;;;23.34;61.77
49827;BME280;35715;51.570;6.036;2023-08-21T00:49:55;102120.53;;;23.28;62.40
49827;BME280;35715;51.570;6.036;2023-08-21T00:52:21;102114.00;;;23.17;62.47
49827;BME280;35715;51.570;6.036;2023-08-21T00:54:46;102111.88;;;23.08;62.99
49827;BME280;35715;51.570;6.036;2023-08-21T00:57:12;102111.72;;;23.03;63.11
49827;BME280;35715;51.570;6.036;2023-08-21T00:59:39;102123.88;;;23.00;63.85
49827;BME280;35715;51.570;6.036;2023-08-21T01:02:07;102127.22;;;22.96;63.79
49827;BME280;35715;51.570;6.036;2023-08-21T01:04:33;102125.19;;;22.89;63.91
49827;BME280;35715;51.570;6.036;2023-08-21T01:06:58;102129.28;;;22.80;64.27
49827;BME280;35715;51.570;6.036;2023-08-21T01:09:36;102119.47;;;22.76;64.49
49827;BME280;35715;51.570;6.036;2023-08-21T01:15:05;102127.91;;;22.67;64.30
49827;BME280;35715;51.570;6.036;2023-08-21T01:17:33;102119.84;;;22.63;64.71
49827;BME280;35715;51.570;6.036;2023-08-21T01:19:59;102121.47;;;22.59;65.29
49827;BME280;35715;51.570;6.036;2023-08-21T01:22:36;102118.59;;;22.53;64.88
49827;BME280;35715;51.570;6.036;2023-08-21T01:25:02;102113.16;;;22.48;65.09
49827;BME280;35715;51.570;6.036;2023-08-21T01:27:36;102118.13;;;22.41;65.73
49827;BME280;35715;51.570;6.036;2023-08-21T01:30:03;102116.13;;;22.35;65.99
49827;BME280;35715;51.570;6.036;2023-08-21T01:32:37;102115.09;;;22.31;66.32
49827;BME280;35715;51.570;6.036;2023-08-21T01:35:06;102117.63;;;22.30;66.31
49827;BME280;35715;51.570;6.036;2023-08-21T01:37:32;102116.56;;;22.25;66.32
49827;BME280;35715;51.570;6.036;2023-08-21T01:39:58;102109.31;;;22.19;66.61
49827;BME280;35715;51.570;6.036;2023-08-21T01:42:24;102105.69;;;22.15;66.83
49827;BME280;35715;51.570;6.036;2023-08-21T01:44:49;102112.69;;;22.15;66.59
49827;BME280;35715;51.570;6.036;2023-08-21T01:47:14;102112.63;;;22.13;67.12
49827;BME280;35715;51.570;6.036;2023-08-21T01:49:43;102114.28;;;22.11;66.63
49827;BME280;35715;51.570;6.036;2023-08-21T01:52:08;102108.88;;;22.08;66.82
49827;BME280;35715;51.570;6.036;2023-08-21T01:54:34;102112.34;;;22.07;66.91
49827;BME280;35715;51.570;6.036;2023-08-21T01:56:59;102106.13;;;22.05;66.98
49827;BME280;35715;51.570;6.036;2023-08-21T01:59:24;102108.78;;;22.05;67.10
49827;BME280;35715;51.570;6.036;2023-08-21T02:01:50;102106.91;;;22.03;67.10
49827;BME280;35715;51.570;6.036;2023-08-21T02:04:16;102104.22;;;22.01;66.99
49827;BME280;35715;51.570;6.036;2023-08-21T02:06:41;102098.94;;;22.01;67.02
49827;BME280;35715;51.570;6.036;2023-08-21T02:09:09;102107.81;;;22.03;67.25
49827;BME280;35715;51.570;6.036;2023-08-21T02:11:35;102106.97;;;22.04;66.96
49827;BME280;35715;51.570;6.036;2023-08-21T02:14:01;102104.28;;;22.03;67.35
49827;BME280;35715;51.570;6.036;2023-08-21T02:16:26;102099.94;;;22.03;67.41
49827;BME280;35715;51.570;6.036;2023-08-21T02:18:52;102106.97;;;22.04;67.96
49827;BME280;35715;51.570;6.036;2023-08-21T02:21:17;102110.50;;;22.05;67.98
49827;BME280;35715;51.570;6.036;2023-08-21T02:23:42;102108.88;;;22.08;67.77
49827;BME280;35715;51.570;6.036;2023-08-21T02:26:08;102116.13;;;22.14;67.25
49827;BME280;35715;51.570;6.036;2023-08-21T02:28:33;102119.78;;;22.18;67.65
49827;BME280;35715;51.570;6.036;2023-08-21T02:30:58;102117.16;;;22.18;67.38
49827;BME280;35715;51.570;6.036;2023-08-21T02:33:24;102108.25;;;22.14;66.55
49827;BME280;35715;51.570;6.036;2023-08-21T02:35:49;102108.88;;;22.08;67.26
49827;BME280;35715;51.570;6.036;2023-08-21T02:38:15;102114.84;;;22.04;67.42
49827;BME280;35715;51.570;6.036;2023-08-21T02:40:41;102119.03;;;21.99;67.22
49827;BME280;35715;51.570;6.036;2023-08-21T02:43:06;102105.72;;;21.94;67.57
49827;BME280;35715;51.570;6.036;2023-08-21T02:45:34;102105.38;;;21.87;67.64
49827;BME280;35715;51.570;6.036;2023-08-21T02:48:00;102108.72;;;21.83;67.95
49827;BME280;35715;51.570;6.036;2023-08-21T02:50:25;102102.38;;;21.77;68.06
49827;BME280;35715;51.570;6.036;2023-08-21T02:52:51;102102.19;;;21.73;67.94
49827;BME280;35715;51.570;6.036;2023-08-21T02:55:16;102099.50;;;21.71;68.19
49827;BME280;35715;51.570;6.036;2023-08-21T02:57:41;102103.66;;;21.66;68.30
49827;BME280;35715;51.570;6.036;2023-08-21T03:00:07;102106.00;;;21.60;68.67
49827;BME280;35715;51.570;6.036;2023-08-21T03:02:33;102099.75;;;21.56;69.14
49827;BME280;35715;51.570;6.036;2023-08-21T03:04:59;102096.94;;;21.52;69.20
49827;BME280;35715;51.570;6.036;2023-08-21T03:07:25;102098.56;;;21.50;68.95
49827;BME280;35715;51.570;6.036;2023-08-21T03:09:50;102094.88;;;21.46;69.29
49827;BME280;35715;51.570;6.036;2023-08-21T03:12:16;102104.44;;;21.44;69.08
49827;BME280;35715;51.570;6.036;2023-08-21T03:14:41;102101.75;;;21.42;69.48
49827;BME280;35715;51.570;6.036;2023-08-21T03:17:09;102105.13;;;21.40;69.24
49827;BME280;35715;51.570;6.036;2023-08-21T03:19:35;102101.56;;;21.38;69.69
49827;BME280;35715;51.570;6.036;2023-08-21T03:22:00;102105.06;;;21.38;69.73
49827;BME280;35715;51.570;6.036;2023-08-21T03:24:25;102113.00;;;21.40;69.63
49827;BME280;35715;51.570;6.036;2023-08-21T03:26:51;102101.47;;;21.36;69.09
49827;BME280;35715;51.570;6.036;2023-08-21T03:29:16;102101.25;;;21.32;69.46
49827;BME280;35715;51.570;6.036;2023-08-21T03:31:42;102107.28;;;21.29;69.61
49827;BME280;35715;51.570;6.036;2023-08-21T03:34:07;102105.41;;;21.26;69.77
49827;BME280;35715;51.570;6.036;2023-08-21T03:36:33;102105.28;;;21.23;69.71
49827;BME280;35715;51.570;6.036;2023-08-21T03:39:00;102106.03;;;21.21;69.39
49827;BME280;35715;51.570;6.036;2023-08-21T03:41:26;102105.84;;;21.16;70.00
49827;BME280;35715;51.570;6.036;2023-08-21T03:43:51;102101.38;;;21.14;70.13
49827;BME280;35715;51.570;6.036;2023-08-21T03:46:17;102102.94;;;21.10;70.44
49827;BME280;35715;51.570;6.036;2023-08-21T03:48:43;102112.56;;;21.09;70.69
49827;BME280;35715;51.570;6.036;2023-08-21T03:51:08;102105.63;;;21.12;70.76
49827;BME280;35715;51.570;6.036;2023-08-21T03:53:34;102104.69;;;21.09;70.71
49827;BME280;35715;51.570;6.036;2023-08-21T03:55:59;102100.31;;;21.10;70.72
49827;BME280;35715;51.570;6.036;2023-08-21T03:58:24;102100.38;;;21.12;70.51
49827;BME280;35715;51.570;6.036;2023-08-21T04:00:52;102103.13;;;21.15;70.46
49827;BME280;35715;51.570;6.036;2023-08-21T04:03:17;102109.50;;;21.20;70.98
49827;BME280;35715;51.570;6.036;2023-08-21T04:05:42;102111.50;;;21.25;70.79
49827;BME280;35715;51.570;6.036;2023-08-21T04:08:08;102104.66;;;21.29;70.30
49827;BME280;35715;51.570;6.036;2023-08-21T04:10:33;102101.91;;;21.26;70.32
49827;BME280;35715;51.570;6.036;2023-08-21T04:12:58;102106.03;;;21.21;70.64
49827;BME280;35715;51.570;6.036;2023-08-21T04:15:26;102106.69;;;21.15;70.87
49827;BME280;35715;51.570;6.036;2023-08-21T04:17:51;102103.84;;;21.11;70.93
49827;BME280;35715;51.570;6.036;2023-08-21T04:20:17;102105.44;;;21.07;71.33
49827;BME280;35715;51.570;6.036;2023-08-21T04:22:43;102108.81;;;21.04;71.40
49827;BME280;35715;51.570;6.036;2023-08-21T04:25:08;102102.47;;;20.99;71.73
49827;BME280;35715;51.570;6.036;2023-08-21T04:27:34;102109.50;;;21.00;71.62
49827;BME280;35715;51.570;6.036;2023-08-21T04:30:09;102110.59;;;21.05;71.17
49827;BME280;35715;51.570;6.036;2023-08-21T04:32:34;102106.41;;;21.09;71.08
49827;BME280;35715;51.570;6.036;2023-08-21T04:35:00;102103.84;;;21.11;71.53
49827;BME280;35715;51.570;6.036;2023-08-21T04:37:26;102111.81;;;21.12;71.39
49827;BME280;35715;51.570;6.036;2023-08-21T04:39:54;102108.19;;;21.10;71.46
49827;BME280;35715;51.570;6.036;2023-08-21T04:42:20;102111.59;;;21.07;71.55
49827;BME280;35715;51.570;6.036;2023-08-21T04:44:45;102106.03;;;21.01;71.86
49827;BME280;35715;51.570;6.036;2023-08-21T04:47:24;102111.94;;;20.96;71.64
49827;BME280;35715;51.570;6.036;2023-08-21T04:49:54;102114.50;;;20.94;72.03
49827;BME280;35715;51.570;6.036;2023-08-21T04:52:20;102116.13;;;20.92;72.18
49827;BME280;35715;51.570;6.036;2023-08-21T04:54:47;102111.72;;;20.91;72.23
49827;BME280;35715;51.570;6.036;2023-08-21T04:57:13;102113.56;;;20.94;72.28
49827;BME280;35715;51.570;6.036;2023-08-21T04:59:39;102115.38;;;20.95;72.39
49827;BME280;35715;51.570;6.036;2023-08-21T05:02:04;102124.13;;;20.95;72.27
49827;BME280;35715;51.570;6.036;2023-08-21T05:04:30;102119.03;;;20.98;72.51
49827;BME280;35715;51.570;6.036;2023-08-21T05:06:55;102119.16;;;21.01;72.45
49827;BME280;35715;51.570;6.036;2023-08-21T05:09:21;102120.28;;;21.06;72.45
49827;BME280;35715;51.570;6.036;2023-08-21T05:11:46;102121.38;;;21.12;72.31
49827;BME280;35715;51.570;6.036;2023-08-21T05:14:11;102118.00;;;21.14;72.35
49827;BME280;35715;51.570;6.036;2023-08-21T05:16:37;102122.50;;;21.17;72.51
49827;BME280;35715;51.570;6.036;2023-08-21T05:19:02;102126.09;;;21.19;72.52
49827;BME280;35715;51.570;6.036;2023-08-21T05:21:28;102126.16;;;21.20;72.35
49827;BME280;35715;51.570;6.036;2023-08-21T05:23:53;102123.53;;;21.20;72.26
49827;BME280;35715;51.570;6.036;2023-08-21T05:26:19;102128.84;;;21.22;71.85
49827;BME280;35715;51.570;6.036;2023-08-21T05:28:45;102134.09;;;21.22;72.01
49827;BME280;35715;51.570;6.036;2023-08-21T05:31:10;102140.22;;;21.22;72.24
49827;BME280;35715;51.570;6.036;2023-08-21T05:33:36;102152.34;;;21.19;72.02
49827;BME280;35715;51.570;6.036;2023-08-21T05:36:01;102161.22;;;21.22;72.11
49827;BME280;35715;51.570;6.036;2023-08-21T05:38:26;102159.66;;;21.26;72.15
49827;BME280;35715;51.570;6.036;2023-08-21T05:40:52;102165.94;;;21.30;72.04
49827;BME280;35715;51.570;6.036;2023-08-21T05:43:20;102172.06;;;21.30;71.95
49827;BME280;35715;51.570;6.036;2023-08-21T05:45:45;102166.75;;;21.28;71.97
49827;BME280;35715;51.570;6.036;2023-08-21T05:48:11;102157.78;;;21.23;71.91
49827;BME280;35715;51.570;6.036;2023-08-21T05:50:36;102148.63;;;21.14;72.47
49827;BME280;35715;51.570;6.036;2023-08-21T05:53:06;102152.81;;;21.10;73.04
49827;BME280;35715;51.570;6.036;2023-08-21T05:55:32;102158.13;;;21.12;73.08
49827;BME280;35715;51.570;6.036;2023-08-21T05:57:57;102166.41;;;21.21;72.87
49827;BME280;35715;51.570;6.036;2023-08-21T06:00:23;102166.75;;;21.28;72.00
49827;BME280;35715;51.570;6.036;2023-08-21T06:02:48;102173.34;;;21.38;72.44
49827;BME280;35715;51.570;6.036;2023-08-21T06:05:14;102171.94;;;21.47;72.40
49827;BME280;35715;51.570;6.036;2023-08-21T06:07:39;102171.53;;;21.57;72.05
49827;BME280;35715;51.570;6.036;2023-08-21T06:10:09;102180.63;;;21.64;71.26
49827;BME280;35715;51.570;6.036;2023-08-21T06:12:40;102175.50;;;21.67;70.94
49827;BME280;35715;51.570;6.036;2023-08-21T06:15:06;102169.50;;;21.71;71.12
49827;BME280;35715;51.570;6.036;2023-08-21T06:17:38;102169.56;;;21.72;70.79
49827;BME280;35715;51.570;6.036;2023-08-21T06:20:05;102170.31;;;21.68;70.94
49827;BME280;35715;51.570;6.036;2023-08-21T06:22:42;102171.00;;;21.64;71.21
49827;BME280;35715;51.570;6.036;2023-08-21T06:25:08;102175.34;;;21.64;71.97
49827;BME280;35715;51.570;6.036;2023-08-21T06:27:33;102172.94;;;21.68;71.39
49827;BME280;35715;51.570;6.036;2023-08-21T06:29:59;102171.38;;;21.73;71.83
49827;BME280;35715;51.570;6.036;2023-08-21T06:32:24;102174.41;;;21.83;71.57
49827;BME280;35715;51.570;6.036;2023-08-21T06:34:50;102173.22;;;21.95;70.93
49827;BME280;35715;51.570;6.036;2023-08-21T06:37:15;102177.16;;;22.07;70.73
49827;BME280;35715;51.570;6.036;2023-08-21T06:39:40;102181.09;;;22.17;70.39
49827;BME280;35715;51.570;6.036;2023-08-21T06:42:06;102179.78;;;22.28;70.07
49827;BME280;35715;51.570;6.036;2023-08-21T06:44:31;102184.63;;;22.38;69.66
49827;BME280;35715;51.570;6.036;2023-08-21T06:46:57;102187.88;;;22.54;69.17
49827;BME280;35715;51.570;6.036;2023-08-21T06:49:22;102187.66;;;22.70;68.37
49827;BME280;35715;51.570;6.036;2023-08-21T06:51:48;102185.19;;;22.97;67.91
49827;BME280;35715;51.570;6.036;2023-08-21T06:54:14;102193.94;;;23.19;66.96
49827;BME280;35715;51.570;6.036;2023-08-21T06:56:39;102191.75;;;23.55;65.71
49827;BME280;35715;51.570;6.036;2023-08-21T06:59:05;102186.38;;;23.78;65.69
49827;BME280;35715;51.570;6.036;2023-08-21T07:01:30;102192.00;;;24.13;64.51
49827;BME280;35715;51.570;6.036;2023-08-21T07:03:55;102186.69;;;24.39;64.27
49827;BME280;35715;51.570;6.036;2023-08-21T07:06:21;102188.28;;;24.34;63.32
49827;BME280;35715;51.570;6.036;2023-08-21T07:08:46;102189.75;;;24.24;64.13
49827;BME280;35715;51.570;6.036;2023-08-21T07:11:11;102193.69;;;24.11;63.32
49827;BME280;35715;51.570;6.036;2023-08-21T07:13:38;102195.25;;;24.04;64.45
49827;BME280;35715;51.570;6.036;2023-08-21T07:16:03;102193.81;;;23.88;62.72
49827;BME280;35715;51.570;6.036;2023-08-21T07:18:32;102193.47;;;23.79;63.80
49827;BME280;35715;51.570;6.036;2023-08-21T07:20:58;102201.09;;;23.96;64.37
49827;BME280;35715;51.570;6.036;2023-08-21T07:23:24;102191.44;;;23.96;64.60
49827;BME280;35715;51.570;6.036;2023-08-21T07:25:49;102194.91;;;23.95;63.38
49827;BME280;35715;51.570;6.036;2023-08-21T07:28:14;102197.50;;;23.94;63.61
49827;BME280;35715;51.570;6.036;2023-08-21T07:30:40;102194.91;;;23.95;64.18
49827;BME280;35715;51.570;6.036;2023-08-21T07:33:05;102199.41;;;23.98;64.27
49827;BME280;35715;51.570;6.036;2023-08-21T07:35:32;102195.53;;;24.14;63.93
49827;BME280;35715;51.570;6.036;2023-08-21T07:37:57;102200.34;;;24.25;63.54
49827;BME280;35715;51.570;6.036;2023-08-21T07:40:22;102186.59;;;24.36;63.15
49827;BME280;35715;51.570;6.036;2023-08-21T07:42:48;102187.44;;;24.35;62.82
49827;BME280;35715;51.570;6.036;2023-08-21T07:45:13;102188.78;;;24.22;61.44
49827;BME280;35715;51.570;6.036;2023-08-21T07:47:39;102180.72;;;24.17;61.08
49827;BME280;35715;51.570;6.036;2023-08-21T07:50:07;102191.22;;;24.16;61.40
49827;BME280;35715;51.570;6.036;2023-08-21T07:52:34;102185.50;;;24.56;60.20
49827;BME280;35715;51.570;6.036;2023-08-21T07:55:00;102188.97;;;24.55;61.37
49827;BME280;35715;51.570;6.036;2023-08-21T07:57:26;102193.72;;;25.55;60.43
49827;BME280;35715;51.570;6.036;2023-08-21T07:59:52;102196.63;;;27.09;56.57
49827;BME280;35715;51.570;6.036;2023-08-21T08:02:17;102188.28;;;28.32;52.48
49827;BME280;35715;51.570;6.036;2023-08-21T08:04:43;102190.50;;;29.26;49.49
49827;BME280;35715;51.570;6.036;2023-08-21T08:07:08;102193.25;;;30.25;45.83
49827;BME280;35715;51.570;6.036;2023-08-21T08:09:33;102193.78;;;31.09;44.10
49827;BME280;35715;51.570;6.036;2023-08-21T08:11:59;102202.84;;;31.65;42.71
49827;BME280;35715;51.570;6.036;2023-08-21T08:14:24;102200.19;;;32.03;40.82
49827;BME280;35715;51.570;6.036;2023-08-21T08:16:50;102196.59;;;32.65;40.68
49827;BME280;35715;51.570;6.036;2023-08-21T08:19:15;102200.91;;;33.07;37.67
49827;BME280;35715;51.570;6.036;2023-08-21T08:21:41;102201.56;;;33.57;36.81
49827;BME280;35715;51.570;6.036;2023-08-21T08:24:06;102200.19;;;34.17;35.92
49827;BME280;35715;51.570;6.036;2023-08-21T08:26:32;102192.91;;;34.36;35.69
49827;BME280;35715;51.570;6.036;2023-08-21T08:28:57;102199.47;;;34.90;34.17
49827;BME280;35715;51.570;6.036;2023-08-21T08:31:22;102202.56;;;35.29;33.82
49827;BME280;35715;51.570;6.036;2023-08-21T08:33:49;102194.81;;;35.68;32.41
49827;BME280;35715;51.570;6.036;2023-08-21T08:36:15;102202.38;;;35.41;32.39
49827;BME280;35715;51.570;6.036;2023-08-21T08:38:40;102202.50;;;33.49;33.84
49827;BME280;35715;51.570;6.036;2023-08-21T08:44:01;102210.88;;;31.70;37.04
49827;BME280;35715;51.570;6.036;2023-08-21T08:46:28;102206.44;;;31.89;36.78
49827;BME280;35715;51.570;6.036;2023-08-21T08:48:54;102202.00;;;31.94;37.23
49827;BME280;35715;51.570;6.036;2023-08-21T08:51:24;102199.34;;;32.20;36.98
49827;BME280;35715;51.570;6.036;2023-08-21T08:53:49;102198.38;;;32.77;36.17
49827;BME280;35715;51.570;6.036;2023-08-21T08:56:14;102201.28;;;33.99;34.55
49827;BME280;35715;51.570;6.036;2023-08-21T08:58:40;102201.41;;;34.78;32.86
49827;BME280;35715;51.570;6.036;2023-08-21T09:01:08;102208.69;;;35.40;32.77
49827;BME280;35715;51.570;6.036;2023-08-21T09:03:35;102194.88;;;36.19;31.16
49827;BME280;35715;51.570;6.036;2023-08-21T09:06:01;102204.75;;;36.67;30.07
49827;BME280;35715;51.570;6.036;2023-08-21T09:08:26;102200.25;;;36.68;29.39
49827;BME280;35715;51.570;6.036;2023-08-21T09:10:53;102206.00;;;36.94;29.57
49827;BME280;35715;51.570;6.036;2023-08-21T09:13:19;102205.22;;;36.88;29.75
49827;BME280;35715;51.570;6.036;2023-08-21T09:15:52;102209.03;;;36.78;29.17
49827;BME280;35715;51.570;6.036;2023-08-21T09:18:19;102204.47;;;35.83;32.42
49827;BME280;35715;51.570;6.036;2023-08-21T09:20:44;102207.25;;;35.13;31.99
49827;BME280;35715;51.570;6.036;2023-08-21T09:23:13;102203.44;;;35.31;30.85
49827;BME280;35715;51.570;6.036;2023-08-21T09:25:39;102212.13;;;34.75;32.08
49827;BME280;35715;51.570;6.036;2023-08-21T09:28:06;102199.06;;;34.44;32.70
49827;BME280;35715;51.570;6.036;2023-08-21T09:30:51;102196.75;;;35.60;31.21
49827;BME280;35715;51.570;6.036;2023-08-21T09:33:21;102195.69;;;35.68;32.73
49827;BME280;35715;51.570;6.036;2023-08-21T09:35:47;102192.75;;;36.38;31.34
49827;BME280;35715;51.570;6.036;2023-08-21T09:38:13;102201.66;;;37.69;29.01
49827;BME280;35715;51.570;6.036;2023-08-21T09:40:42;102195.75;;;38.56;28.55
49827;BME280;35715;51.570;6.036;2023-08-21T09:43:09;102200.66;;;39.04;28.49
49827;BME280;35715;51.570;6.036;2023-08-21T09:45:35;102199.53;;;39.13;27.16
49827;BME280;35715;51.570;6.036;2023-08-21T09:48:01;102202.66;;;39.29;27.47
49827;BME280;35715;51.570;6.036;2023-08-21T09:50:28;102196.94;;;39.38;27.38
49827;BME280;35715;51.570;6.036;2023-08-21T09:52:54;102195.06;;;38.49;28.00
49827;BME280;35715;51.570;6.036;2023-08-21T09:55:21;102195.34;;;38.72;28.05
49827;BME280;35715;51.570;6.036;2023-08-21T09:57:48;102194.88;;;39.18;27.75
49827;BME280;35715;51.570;6.036;2023-08-21T10:00:14;102196.75;;;39.16;26.96
49827;BME280;35715;51.570;6.036;2023-08-21T10:02:51;102200.47;;;38.49;26.86
49827;BME280;35715;51.570;6.036;2023-08-21T10:05:20;102192.00;;;38.30;28.81
49827;BME280;35715;51.570;6.036;2023-08-21T10:07:48;102190.72;;;38.44;27.78
49827;BME280;35715;51.570;6.036;2023-08-21T10:10:14;102188.50;;;38.60;27.17
49827;BME280;35715;51.570;6.036;2023-08-21T10:12:40;102184.78;;;38.64;27.67
49827;BME280;35715;51.570;6.036;2023-08-21T10:15:07;102193.47;;;38.42;27.59
49827;BME280;35715;51.570;6.036;2023-08-21T10:17:37;102189.59;;;38.52;28.54
49827;BME280;35715;51.570;6.036;2023-08-21T10:20:03;102180.66;;;37.83;28.78
49827;BME280;35715;51.570;6.036;2023-08-21T10:25:02;102172.53;;;37.47;28.82
49827;BME280;35715;51.570;6.036;2023-08-21T10:27:30;102174.53;;;37.39;29.04
49827;BME280;35715;51.570;6.036;2023-08-21T10:29:57;102172.63;;;37.80;29.50
49827;BME280;35715;51.570;6.036;2023-08-21T10:32:22;102169.28;;;37.72;29.80
49827;BME280;35715;51.570;6.036;2023-08-21T10:34:53;102172.53;;;38.19;27.97
49827;BME280;35715;51.570;6.036;2023-08-21T10:37:18;102173.59;;;38.12;28.66
49827;BME280;35715;51.570;6.036;2023-08-21T10:39:56;102167.28;;;37.78;27.87
49827;BME280;35715;51.570;6.036;2023-08-21T10:42:37;102172.25;;;38.30;27.42
49827;BME280;35715;51.570;6.036;2023-08-21T10:45:11;102183.44;;;38.79;26.30
49827;BME280;35715;51.570;6.036;2023-08-21T10:47:37;102182.41;;;38.51;26.28
49827;BME280;35715;51.570;6.036;2023-08-21T10:50:07;102176.03;;;38.23;27.08
49827;BME280;35715;51.570;6.036;2023-08-21T10:52:37;102183.97;;;37.57;28.75
49827;BME280;35715;51.570;6.036;2023-08-21T10:55:03;102180.94;;;36.91;29.09
49827;BME280;35715;51.570;6.036;2023-08-21T10:57:31;102179.25;;;36.41;30.83
49827;BME280;35715;51.570;6.036;2023-08-21T11:00:05;102177.25;;;36.03;30.21
49827;BME280;35715;51.570;6.036;2023-08-21T11:02:44;102185.25;;;35.50;30.60
49827;BME280;35715;51.570;6.036;2023-08-21T11:05:12;102185.81;;;35.10;32.69
49827;BME280;35715;51.570;6.036;2023-08-21T11:10:07;102182.19;;;34.36;34.97
49827;BME280;35715;51.570;6.036;2023-08-21T11:12:35;102183.34;;;34.07;33.41
49827;BME280;35715;51.570;6.036;2023-08-21T11:15:01;102187.94;;;33.90;33.30
49827;BME280;35715;51.570;6.036;2023-08-21T11:17:30;102189.00;;;33.66;34.98
49827;BME280;35715;51.570;6.036;2023-08-21T11:19:56;102187.38;;;33.38;34.37
49827;BME280;35715;51.570;6.036;2023-08-21T11:22:28;102195.38;;;33.45;35.82
49827;BME280;35715;51.570;6.036;2023-08-21T11:24:53;102180.03;;;33.71;35.76
49827;BME280;35715;51.570;6.036;2023-08-21T11:27:19;102188.91;;;33.83;35.17
49827;BME280;35715;51.570;6.036;2023-08-21T11:29:46;102189.75;;;33.89;35.77
49827;BME280;35715;51.570;6.036;2023-08-21T11:32:20;102176.47;;;33.71;34.98
49827;BME280;35715;51.570;6.036;2023-08-21T11:34:49;102178.47;;;33.41;34.80
49827;BME280;35715;51.570;6.036;2023-08-21T11:37:19;102181.22;;;33.30;35.72
49827;BME280;35715;51.570;6.036;2023-08-21T11:39:50;102172.34;;;33.23;35.45
49827;BME280;35715;51.570;6.036;2023-08-21T11:42:18;102170.75;;;32.70;35.15
49827;BME280;35715;51.570;6.036;2023-08-21T11:44:46;102159.19;;;32.69;35.50
49827;BME280;35715;51.570;6.036;2023-08-21T11:47:11;102165.22;;;33.21;35.26
49827;BME280;35715;51.570;6.036;2023-08-21T11:49:39;102163.22;;;33.55;34.61
49827;BME280;35715;51.570;6.036;2023-08-21T11:52:06;102167.75;;;33.41;35.14
49827;BME280;35715;51.570;6.036;2023-08-21T11:54:37;102169.34;;;33.67;33.88
49827;BME280;35715;51.570;6.036;2023-08-21T11:57:12;102155.94;;;33.74;34.29
49827;BME280;35715;51.570;6.036;2023-08-21T11:59:38;102159.81;;;33.29;35.44
49827;BME280;35715;51.570;6.036;2023-08-21T12:02:13;102155.44;;;33.07;34.66
49827;BME280;35715;51.570;6.036;2023-08-21T12:04:39;102155.56;;;32.87;35.69
49827;BME280;35715;51.570;6.036;2023-08-21T12:07:04;102160.09;;;32.65;35.08
49827;BME280;35715;51.570;6.036;2023-08-21T12:09:30;102152.06;;;32.56;36.52
49827;BME280;35715;51.570;6.036;2023-08-21T12:11:56;102148.53;;;32.51;37.13
49827;BME280;35715;51.570;6.036;2023-08-21T12:14:22;102152.03;;;32.75;36.98
49827;BME280;35715;51.570;6.036;2023-08-21T12:16:48;102146.66;;;32.78;37.03
49827;BME280;35715;51.570;6.036;2023-08-21T12:19:13;102144.03;;;32.62;36.63
49827;BME280;35715;51.570;6.036;2023-08-21T12:21:39;102146.75;;;32.48;36.42
49827;BME280;35715;51.570;6.036;2023-08-21T12:24:05;102149.47;;;32.39;36.63
49827;BME280;35715;51.570;6.036;2023-08-21T12:26:32;102151.25;;;32.22;36.12
49827;BME280;35715;51.570;6.036;2023-08-21T12:28:58;102150.34;;;32.35;36.10
49827;BME280;35715;51.570;6.036;2023-08-21T12:31:23;102157.41;;;32.59;36.38
49827;BME280;35715;51.570;6.036;2023-08-21T12:33:48;102157.13;;;33.30;35.32
49827;BME280;35715;51.570;6.036;2023-08-21T12:36:14;102147.41;;;34.32;34.00
49827;BME280;35715;51.570;6.036;2023-08-21T12:38:40;102153.91;;;34.87;31.68
49827;BME280;35715;51.570;6.036;2023-08-21T12:41:05;102155.06;;;35.35;31.69
49827;BME280;35715;51.570;6.036;2023-08-21T12:43:30;102155.53;;;35.61;30.99
49827;BME280;35715;51.570;6.036;2023-08-21T12:45:57;102153.47;;;35.21;31.87
49827;BME280;35715;51.570;6.036;2023-08-21T12:48:23;102142.44;;;34.75;32.52
49827;BME280;35715;51.570;6.036;2023-08-21T12:50:48;102133.19;;;34.26;32.84
49827;BME280;35715;51.570;6.036;2023-08-21T12:53:13;102142.19;;;34.16;34.95
49827;BME280;35715;51.570;6.036;2023-08-21T12:55:39;102140.31;;;34.23;34.79
49827;BME280;35715;51.570;6.036;2023-08-21T12:58:04;102145.44;;;34.47;34.31